Milwaukee, WI

8:17 PM CST on February 06, 2016 (GMT -0600)
Weston Hills | | Change Station
CLOSE
Current Station
Personal Weather Station
Location: Brookfield, WI
Elevation: 919 ft
Nearby Weather Stations

Elev 919 ft 43.02 °N, 88.16 °W | Updated 150 days ago

Partly Cloudy
Partly Cloudy
32 °F
Feels Like 25 °F
N
8
Wind Variable Wind from SSW
Gusts 14 mph

Today
High -- | Low -- °F
--% Chance of Precip.
Yesterday
High -- | Low -- °F
Precip. -- in
Pressure 30.12 in
Visibility 8.0 miles
Clouds Few 12000 ft
Scattered Clouds 20000 ft
Windchill 25 °F
Dew Point 27 °F
Humidity 81%
Rainfall in
Snow Depth Not available.
7:01 AM 5:10 PM
Waning Crescent, 3% visible
METAR KMKE 070152Z 20005KT 8SM FEW120 SCT200 M01/M04 A3009 RMK AO2 SLP199 T10111039
Pressure 30.12 in
Visibility 8.0 miles
Clouds Few 12000 ft
Scattered Clouds 20000 ft
Windchill 25 °F
Dew Point 27 °F
Humidity 81%
Rainfall in
Snow Depth Not available.
7:01 AM 5:10 PM
Waning Crescent, 3% visible
METAR KMKE 070152Z 20005KT 8SM FEW120 SCT200 M01/M04 A3009 RMK AO2 SLP199 T10111039

10-Day Weather Forecast

Almanac

Astronomy

Feb. 06, 2016 Rise Set
Actual Time
Civil Twilight
Nautical Twilight
Astronomical Twilight
Moon
Length of Visible Light
Length of Day
Tomorrow will be .
, % of the Moon is Illuminated

Today's Extremes

State Highs State Lows

Community

WunderPhotos

Upload Photos

1,891,138 photos uploaded!

WunderBlog® & News

Nearby

Air Quality

  Air Quality AQ Index Pollutant
Not available.

Snow Depth

Station Depth Elevation

Earthquake Activity

City Distance Mag. Time & Date
Minimum magnitude displayed is 2.5.

Coastal Water Temperatures

Place Temperature

Stations

Nearby Weather Stations

Station Location Temp. Windchill Dew Point Humidity Wind Precip. Elev Updated Type
                   

Watches & Warnings

There are currently no watches in effect.